Time;durP1;ratioP1;P1;durP2;ratioP2;P2;SDS_P1;SDS_P2;PMS_P1;PMS_P2;Temp;Humidity;BMP_temperature;BMP_pressure;BME280_temperature;BME280_humidity;BME280_pressure;Samples;Min_cycle;Max_cycle;Signal;HPM_P1;HPM_P2
2021/04/15 00:01:32;;;;;;;17.45;8.65;;;;;;;0.93;72.21;97464.78;4996659;28;20464;-61
2021/04/15 00:03:57;;;;;;;11.48;8.00;;;;;;;0.99;72.10;97462.03;5003120;28;20037;-61
2021/04/15 00:06:29;;;;;;;12.98;7.57;;;;;;;0.99;71.90;97460.16;4992427;28;20435;-60
2021/04/15 00:08:56;;;;;;;12.52;7.97;;;;;;;1.03;71.62;97458.50;5002694;28;20065;-62
2021/04/15 00:11:25;;;;;;;16.63;7.90;;;;;;;0.95;71.98;97457.22;4996509;28;22435;-60
2021/04/15 00:13:54;;;;;;;15.93;8.20;;;;;;;1.00;71.77;97459.06;5002313;28;20145;-60
2021/04/15 00:16:20;;;;;;;11.13;7.80;;;;;;;0.97;72.31;97446.13;4994916;28;20096;-62
2021/04/15 00:18:46;;;;;;;12.70;8.48;;;;;;;0.95;71.78;97451.00;5003049;28;20099;-62
2021/04/15 00:21:13;;;;;;;12.13;7.60;;;;;;;0.92;72.00;97448.91;4997131;28;20428;-61
2021/04/15 00:23:38;;;;;;;12.82;7.80;;;;;;;0.95;71.98;97446.44;5002409;28;20049;-61
2021/04/15 00:26:06;;;;;;;13.98;8.10;;;;;;;0.88;71.23;97437.88;5002058;28;20346;-62
2021/04/15 00:28:32;;;;;;;15.43;7.65;;;;;;;0.93;71.42;97443.19;5012922;28;20049;-60
2021/04/15 00:30:58;;;;;;;14.95;8.40;;;;;;;0.84;71.65;97439.53;4993213;28;20068;-62
2021/04/15 00:33:24;;;;;;;11.65;8.00;;;;;;;0.86;71.85;97441.94;4995464;28;20249;-60
2021/04/15 00:35:49;;;;;;;14.48;7.93;;;;;;;0.86;71.40;97428.47;5002520;28;20562;-61
2021/04/15 00:38:17;;;;;;;11.52;7.68;;;;;;;0.90;71.72;97438.41;4997600;28;20137;-59
2021/04/15 00:40:45;;;;;;;14.85;7.82;;;;;;;0.81;70.78;97428.50;5002713;28;20041;-60
2021/04/15 00:43:10;;;;;;;12.27;7.90;;;;;;;0.77;71.05;97425.56;4995479;28;20471;-60
2021/04/15 00:45:43;;;;;;;10.95;7.45;;;;;;;0.81;70.78;97433.91;4992795;28;20046;-62
2021/04/15 00:48:19;;;;;;;14.25;7.80;;;;;;;0.72;70.75;97428.31;4997069;28;20037;-61
2021/04/15 00:50:53;;;;;;;13.98;8.25;;;;;;;0.71;70.89;97429.41;4995832;28;20050;-60
2021/04/15 00:53:26;;;;;;;13.57;7.65;;;;;;;0.69;71.16;97428.91;4992198;28;20516;-61
2021/04/15 00:55:53;;;;;;;11.35;7.25;;;;;;;0.67;70.95;97428.38;4996874;28;20112;-60
2021/04/15 00:58:19;;;;;;;12.80;8.05;;;;;;;0.60;71.44;97409.84;4989530;28;20046;-59
2021/04/15 01:00:45;;;;;;;13.80;7.90;;;;;;;0.59;71.83;97415.50;5002203;28;20619;-60
2021/04/15 01:03:10;;;;;;;12.23;8.05;;;;;;;0.55;71.47;97420.66;4994368;28;20046;-60
2021/04/15 01:05:39;;;;;;;13.35;8.40;;;;;;;0.50;72.00;97408.03;4995393;28;20149;-60
2021/04/15 01:08:05;;;;;;;11.07;8.07;;;;;;;0.47;71.73;97405.91;4994873;28;20041;-61
2021/04/15 01:10:36;;;;;;;10.75;8.18;;;;;;;0.44;72.10;97408.38;5001726;28;20052;-59
2021/04/15 01:13:15;;;;;;;12.80;7.55;;;;;;;0.40;72.30;97405.44;4998732;28;20049;-61
2021/04/15 01:16:09;;;;;;;13.00;7.37;;;;;;;0.40;72.08;97405.44;4995899;28;20432;-61
2021/04/15 01:19:02;;;;;;;16.80;10.27;;;;;;;0.36;72.76;97409.78;4963840;28;20802;-59
2021/04/15 01:21:54;;;;;;;15.10;7.40;;;;;;;0.36;72.87;97402.50;4961044;28;20073;-61
2021/04/15 01:24:47;;;;;;;10.27;7.07;;;;;;;0.46;72.31;97415.09;4967589;28;20039;-60
2021/04/15 01:27:25;;;;;;;16.40;8.23;;;;;;;0.43;72.61;97404.06;4973676;28;20452;-62
2021/04/15 01:30:04;;;;;;;14.13;7.97;;;;;;;0.38;72.43;97404.94;4984523;28;20104;-60
2021/04/15 01:32:35;;;;;;;16.23;8.18;;;;;;;0.35;72.57;97406.28;4997910;28;20056;-61
2021/04/15 01:35:14;;;;;;;11.48;7.38;;;;;;;0.40;72.31;97405.44;4999389;28;20111;-61
2021/04/15 01:37:47;;;;;;;10.80;7.35;;;;;;;0.37;72.53;97412.19;4996222;28;20070;-62
2021/04/15 01:40:16;;;;;;;15.05;8.50;;;;;;;0.35;72.50;97413.56;4996192;28;20046;-61
2021/04/15 01:42:51;;;;;;;15.80;8.35;;;;;;;0.34;72.91;97404.69;4995976;28;20047;-64
2021/04/15 01:45:17;;;;;;;13.43;8.63;;;;;;;0.37;72.67;97406.00;4994453;28;20049;-64
2021/04/15 01:47:56;;;;;;;12.98;8.35;;;;;;;0.40;72.75;97407.31;4996720;28;20402;-62
2021/04/15 01:50:26;;;;;;;14.40;8.75;;;;;;;0.42;72.73;97407.88;4998702;28;21068;-66
2021/04/15 01:52:56;;;;;;;13.90;8.05;;;;;;;0.49;72.32;97400.25;4999464;28;20050;-61
2021/04/15 01:55:33;;;;;;;;;;;;;;;0.54;71.96;97402.88;4995238;28;20275;-62
2021/04/15 01:58:18;;;;;;;13.85;8.57;;;;;;;0.60;71.77;97403.66;4997630;28;19921;-61
2021/04/15 02:00:47;;;;;;;13.77;7.65;;;;;;;0.67;71.47;97404.91;5017847;28;20080;-63
2021/04/15 02:03:18;;;;;;;13.50;7.23;;;;;;;0.78;71.44;97402.91;5018273;28;20155;-63
2021/04/15 02:05:46;;;;;;;16.55;7.80;;;;;;;0.81;71.08;97406.94;5017082;28;20056;-62
2021/04/15 02:08:21;;;;;;;11.43;7.35;;;;;;;0.84;70.74;97392.88;5011916;28;20658;-63
2021/04/15 02:10:54;;;;;;;14.90;6.97;;;;;;;0.98;71.01;97395.72;5014640;28;20073;-64
2021/04/15 02:13:21;;;;;;;14.75;7.53;;;;;;;0.94;70.29;97382.78;5009193;28;20053;-62
2021/04/15 02:15:50;;;;;;;10.98;6.53;;;;;;;1.05;70.08;97386.16;5020455;28;20068;-61
2021/04/15 02:18:30;;;;;;;11.15;7.32;;;;;;;1.11;70.41;97382.31;5014414;28;20037;-62
2021/04/15 02:21:03;;;;;;;12.38;7.28;;;;;;;0.99;69.81;97389.19;5010991;28;20874;-63
2021/04/15 02:23:33;;;;;;;11.57;7.47;;;;;;;0.91;70.49;97388.75;4994406;28;20046;-63
2021/04/15 02:26:08;;;;;;;11.85;7.07;;;;;;;0.83;70.21;97389.38;5018617;28;20042;-63
2021/04/15 02:29:04;;;;;;;9.63;6.38;;;;;;;0.88;70.22;97389.34;5009546;28;20105;-62
2021/04/15 02:31:59;;;;;;;10.95;6.53;;;;;;;0.99;69.38;97392.72;5004663;28;20136;-64
2021/04/15 02:34:32;;;;;;;9.88;6.25;;;;;;;1.21;68.54;97388.69;5001607;28;20053;-63
2021/04/15 02:37:10;;;;;;;11.95;5.93;;;;;;;1.27;67.95;97392.94;4995796;28;20041;-63
2021/04/15 02:39:40;;;;;;;9.45;5.93;;;;;;;1.24;66.82;97391.63;5015149;28;20046;-63
2021/04/15 02:42:10;;;;;;;12.13;5.82;;;;;;;1.18;66.63;97391.97;5001964;28;20057;-60
2021/04/15 02:44:46;;;;;;;9.05;5.75;;;;;;;1.03;67.60;97401.03;5039178;28;20042;-61
2021/04/15 02:47:17;;;;;;;10.13;5.63;;;;;;;0.94;67.37;97401.66;5014800;28;20099;-63
2021/04/15 02:49:42;;;;;;;10.10;5.50;;;;;;;0.88;68.14;97397.44;5023478;28;20045;-64
2021/04/15 02:52:17;;;;;;;9.10;5.13;;;;;;;0.95;67.01;97391.66;5011388;28;20365;-64
2021/04/15 02:54:49;;;;;;;7.80;5.07;;;;;;;0.96;66.36;97396.00;5021721;28;20045;-62
2021/04/15 02:57:25;;;;;;;10.77;5.43;;;;;;;0.80;67.40;97394.56;5020283;28;20047;-63
2021/04/15 03:00:06;;;;;;;9.38;6.47;;;;;;;0.66;67.90;97380.94;5022184;28;20054;-63
2021/04/15 03:02:38;;;;;;;8.68;5.72;;;;;;;0.60;68.23;97382.88;5005194;28;20042;-62
2021/04/15 03:05:09;;;;;;;12.15;5.93;;;;;;;0.58;68.32;97390.44;5010060;28;20038;-61
2021/04/15 03:07:39;;;;;;;9.07;5.95;;;;;;;0.48;68.97;97380.56;5024647;28;20400;-63
2021/04/15 03:10:08;;;;;;;11.60;5.97;;;;;;;0.46;69.26;97377.34;5018838;28;20076;-61
2021/04/15 03:12:40;;;;;;;12.93;6.85;;;;;;;0.40;69.81;97383.06;5022766;28;20140;-61
2021/04/15 03:15:19;;;;;;;12.82;6.28;;;;;;;0.34;70.10;97385.00;5020503;28;20100;-60
2021/04/15 03:17:48;;;;;;;10.05;6.55;;;;;;;0.25;70.79;97384.00;5024898;28;20041;-64
2021/04/15 03:20:25;;;;;;;11.82;6.43;;;;;;;0.17;71.58;97382.72;5017455;28;20045;-62
2021/04/15 03:22:57;;;;;;;9.73;6.75;;;;;;;0.13;71.44;97384.41;5025755;28;20480;-62
2021/04/15 03:25:23;;;;;;;10.93;6.97;;;;;;;0.08;71.99;97382.53;5020231;28;21022;-63
2021/04/15 03:28:10;;;;;;;13.32;7.88;;;;;;;-0.02;72.54;97382.59;5018359;28;20053;-64
2021/04/15 03:31:00;;;;;;;12.45;7.28;;;;;;;-0.11;73.17;97385.13;5006845;28;20122;-63
2021/04/15 03:33:58;;;;;;;14.85;7.72;;;;;;;-0.19;73.62;97385.69;5018537;28;20303;-61
2021/04/15 03:36:35;;;;;;;11.90;7.60;;;;;;;-0.23;73.90;97387.34;5019471;28;20092;-63
2021/04/15 03:39:12;;;;;;;18.27;8.02;;;;;;;-0.28;74.17;97387.38;5024654;28;20092;-62
2021/04/15 03:41:47;;;;;;;14.05;8.40;;;;;;;-0.30;74.19;97384.16;5025987;28;20048;-63
2021/04/15 03:44:25;;;;;;;12.90;7.88;;;;;;;-0.34;74.63;97380.41;5019115;28;20047;-62
2021/04/15 03:47:03;;;;;;;13.98;7.88;;;;;;;-0.33;74.34;97377.44;5025354;28;20045;-63
2021/04/15 03:50:00;;;;;;;13.10;7.22;;;;;;;-0.39;74.86;97381.25;5018863;28;20045;-62
2021/04/15 03:52:40;;;;;;;13.50;7.38;;;;;;;-0.42;74.80;97382.59;5017043;28;20065;-62
2021/04/15 03:55:27;;;;;;;13.57;8.07;;;;;;;-0.40;74.44;97380.47;5019555;28;20046;-61
2021/04/15 03:57:58;;;;;;;12.55;7.28;;;;;;;-0.40;74.61;97376.94;5017943;28;20046;-62
2021/04/15 04:00:32;;;;;;;14.40;8.88;;;;;;;-0.42;74.67;97379.13;5022431;28;20033;-63
2021/04/15 04:03:09;;;;;;;13.43;6.72;;;;;;;-0.39;74.45;97378.56;5034830;28;20101;-64
2021/04/15 04:05:40;;;;;;;11.88;6.88;;;;;;;-0.45;74.96;97380.50;5015439;28;20462;-63
2021/04/15 04:08:16;;;;;;;10.43;6.10;;;;;;;-0.44;74.81;97383.97;5020631;28;20107;-62
2021/04/15 04:10:45;;;;;;;9.98;6.38;;;;;;;-0.38;74.56;97380.16;5025703;28;20550;-64
2021/04/15 04:13:25;;;;;;;12.68;8.30;;;;;;;-0.36;74.42;97385.25;5020090;28;20053;-62
2021/04/15 04:16:00;;;;;;;12.45;5.90;;;;;;;-0.32;74.13;97389.03;5023461;28;20496;-63
2021/04/15 04:18:33;;;;;;;10.52;5.75;;;;;;;-0.25;73.99;97389.53;5012907;28;20072;-62
2021/04/15 04:21:08;;;;;;;11.85;6.03;;;;;;;-0.17;73.38;97386.22;5020173;28;20046;-62
2021/04/15 04:24:06;;;;;;;7.97;5.40;;;;;;;0.08;72.12;97392.50;5002528;28;20046;-62
2021/04/15 04:26:41;;;;;;;10.57;5.55;;;;;;;0.17;71.91;97388.13;5003073;28;20054;-61
2021/04/15 04:29:14;;;;;;;8.35;5.25;;;;;;;0.12;71.78;97388.94;5011218;28;20033;-62
2021/04/15 04:31:43;;;;;;;9.20;5.50;;;;;;;0.18;71.65;97382.47;5025532;28;20042;-63
2021/04/15 04:34:10;;;;;;;8.18;5.53;;;;;;;0.16;71.30;97387.31;5012867;28;20049;-62
2021/04/15 04:36:38;;;;;;;8.70;4.68;;;;;;;0.10;71.55;97387.63;5024791;28;20045;-63
2021/04/15 04:39:05;;;;;;;10.18;5.20;;;;;;;0.16;71.92;97389.19;5025259;28;20064;-60
2021/04/15 04:41:49;;;;;;;10.10;5.18;;;;;;;0.12;71.41;97386.25;5027965;28;20096;-60
2021/04/15 04:44:22;;;;;;;9.85;5.13;;;;;;;0.07;71.12;97389.00;5020336;28;20037;-60
2021/04/15 04:46:52;;;;;;;8.93;4.43;;;;;;;0.16;70.73;97394.59;5000920;28;20042;-62
2021/04/15 04:49:24;;;;;;;7.22;5.28;;;;;;;0.15;70.94;97391.09;5001167;28;20037;-60
2021/04/15 04:52:01;;;;;;;7.35;4.88;;;;;;;0.25;70.61;97397.47;5022045;28;20442;-61
2021/04/15 04:54:27;;;;;;;6.55;4.63;;;;;;;0.08;71.25;97395.19;4998954;28;20057;-61
2021/04/15 04:57:05;;;;;;;8.27;4.95;;;;;;;0.04;70.67;97396.81;5021930;28;20061;-61
2021/04/15 04:59:35;;;;;;;9.45;4.97;;;;;;;0.02;71.19;97402.53;5035536;28;20095;-58
2021/04/15 05:02:00;;;;;;;8.48;4.68;;;;;;;0.02;71.00;97391.75;5022397;28;20049;-61
2021/04/15 05:04:32;;;;;;;10.55;5.07;;;;;;;0.06;70.74;97402.75;5012455;28;20111;-59
2021/04/15 05:07:03;;;;;;;7.57;4.72;;;;;;;0.13;70.45;97403.25;5017121;28;20527;-60
2021/04/15 05:09:38;;;;;;;8.50;4.82;;;;;;;0.06;70.24;97397.38;5013767;28;20049;-59
2021/04/15 05:12:12;;;;;;;10.23;4.88;;;;;;;0.08;69.94;97414.06;5015201;28;20037;-61
2021/04/15 05:14:37;;;;;;;7.88;4.70;;;;;;;0.05;69.83;97412.72;5020046;28;20049;-60
2021/04/15 05:17:29;;;;;;;10.70;4.57;;;;;;;0.10;69.58;97414.56;4999152;28;20399;-61
2021/04/15 05:19:55;;;;;;;14.88;7.45;;;;;;;0.08;70.06;97414.84;5013175;28;20517;-60
2021/04/15 05:22:42;;;;;;;8.10;4.57;;;;;;;0.11;69.80;97417.00;5008115;28;20045;-61
2021/04/15 05:25:18;;;;;;;9.57;5.88;;;;;;;0.02;70.56;97424.06;5017093;28;20073;-63
2021/04/15 05:27:44;;;;;;;9.73;5.88;;;;;;;0.03;70.46;97428.34;5019512;28;20496;-61
2021/04/15 05:30:34;;;;;;;8.63;5.32;;;;;;;0.11;70.71;97432.31;5016280;28;20073;-62
2021/04/15 05:33:01;;;;;;;;;;;;;;;0.18;70.01;97436.34;5020502;28;20048;-57
2021/04/15 05:35:33;;;;;;;12.48;8.10;;;;;;;0.09;70.48;97429.13;5014473;28;19921;-61
2021/04/15 05:37:58;;;;;;;13.38;5.82;;;;;;;0.14;70.88;97432.56;5022615;28;20139;-60
2021/04/15 05:40:24;;;;;;;10.23;5.30;;;;;;;0.25;70.50;97427.13;5016277;28;20823;-60
2021/04/15 05:43:17;;;;;;;13.02;6.78;;;;;;;0.27;69.97;97430.31;5003444;28;20051;-60
2021/04/15 05:45:45;;;;;;;16.67;9.65;;;;;;;0.32;70.10;97433.78;5021596;28;20049;-60
2021/04/15 05:48:13;;;;;;;10.30;7.22;;;;;;;0.40;69.46;97423.47;5007749;28;20111;-58
2021/04/15 05:50:48;;;;;;;9.55;5.60;;;;;;;0.48;69.39;97429.06;5012477;28;20045;-61
2021/04/15 05:53:22;;;;;;;8.88;5.03;;;;;;;0.65;68.06;97428.66;5014523;28;20452;-59
2021/04/15 05:55:57;;;;;;;9.48;5.65;;;;;;;0.54;68.57;97422.56;5020901;28;20048;-59
2021/04/15 05:58:27;;;;;;;13.30;7.05;;;;;;;0.65;67.87;97425.97;5014040;28;20053;-61
2021/04/15 06:01:05;;;;;;;9.52;5.55;;;;;;;0.77;68.65;97430.97;5021309;28;20037;-58
2021/04/15 06:03:54;;;;;;;14.13;7.45;;;;;;;0.82;67.67;97433.63;5017759;28;20520;-60
2021/04/15 06:06:25;;;;;;;9.10;6.43;;;;;;;0.76;67.92;97426.69;5017341;28;20049;-60
2021/04/15 06:08:52;;;;;;;7.68;5.25;;;;;;;0.84;67.43;97423.34;5020731;28;20534;-62
2021/04/15 06:11:36;;;;;;;8.60;5.85;;;;;;;0.90;67.42;97432.19;5010383;28;20073;-62
2021/04/15 06:14:14;;;;;;;12.00;6.55;;;;;;;0.99;67.25;97437.75;5014846;28;20103;-62
2021/04/15 06:16:47;;;;;;;9.65;5.00;;;;;;;0.89;67.54;97431.38;5018842;28;20045;-62
2021/04/15 06:19:23;;;;;;;11.50;6.40;;;;;;;1.13;66.42;97435.97;5014407;28;20049;-60
2021/04/15 06:22:13;;;;;;;7.63;4.50;;;;;;;1.11;66.67;97443.56;5013161;28;20066;-58
2021/04/15 06:24:42;;;;;;;8.38;5.20;;;;;;;1.21;66.00;97429.97;4980320;28;20061;-60
2021/04/15 06:27:08;;;;;;;11.23;6.85;;;;;;;1.42;66.39;97433.19;4977419;28;20048;-60
2021/04/15 06:29:53;;;;;;;12.57;5.50;;;;;;;1.32;65.28;97438.75;4993828;28;20404;-61
2021/04/15 06:32:44;;;;;;;10.20;4.82;;;;;;;1.58;65.41;97436.53;4989499;28;20046;-61
2021/04/15 06:35:18;;;;;;;9.25;5.47;;;;;;;1.47;65.49;97441.25;4984118;28;20136;-60
2021/04/15 06:37:48;;;;;;;9.20;5.50;;;;;;;1.61;65.79;97441.34;4999870;28;20149;-61
2021/04/15 06:40:34;;;;;;;10.50;5.03;;;;;;;1.59;65.29;97440.84;4996746;28;20045;-61
2021/04/15 06:43:33;;;;;;;10.25;6.22;;;;;;;2.33;63.21;97432.22;4998412;28;20048;-62
2021/04/15 06:46:23;;;;;;;7.75;4.80;;;;;;;2.08;62.35;97428.00;4996482;28;20041;-60
2021/04/15 06:49:02;;;;;;;6.25;4.60;;;;;;;1.95;63.77;97437.66;4999094;28;20493;-61
2021/04/15 06:51:29;;;;;;;11.82;5.32;;;;;;;2.28;63.62;97438.50;4996652;28;20111;-62
2021/04/15 06:54:27;;;;;;;6.47;4.40;;;;;;;2.75;61.52;97437.72;5000302;28;20088;-62
2021/04/15 06:57:10;;;;;;;10.02;5.47;;;;;;;2.58;62.08;97446.41;5000306;28;20895;-61
2021/04/15 07:00:17;;;;;;;8.43;4.70;;;;;;;2.49;61.71;97433.56;4998626;28;20493;-58
2021/04/15 07:02:52;;;;;;;11.07;6.50;;;;;;;2.36;62.77;97426.22;5002967;28;20133;-62
2021/04/15 07:05:25;;;;;;;9.75;5.97;;;;;;;2.49;62.90;97433.56;5001703;28;20046;-59
2021/04/15 07:08:00;;;;;;;13.23;6.40;;;;;;;2.83;62.40;97435.16;5000492;28;20080;-59
2021/04/15 07:10:59;;;;;;;8.65;4.45;;;;;;;3.58;59.65;97426.94;4986918;28;20076;-59
2021/04/15 07:13:49;;;;;;;7.47;4.45;;;;;;;3.71;57.90;97425.31;4983626;28;20054;-61
2021/04/15 07:16:40;;;;;;;8.32;5.05;;;;;;;4.18;58.19;97428.63;5009853;28;20050;-59
2021/04/15 07:19:25;;;;;;;11.38;5.00;;;;;;;4.51;57.67;97431.09;4994513;28;20068;-60
2021/04/15 07:21:59;;;;;;;7.38;4.00;;;;;;;3.88;56.08;97421.97;4999314;28;20053;-62
2021/04/15 07:24:32;;;;;;;7.80;4.03;;;;;;;4.46;56.60;97414.94;4973954;28;20053;-59
2021/04/15 07:27:03;;;;;;;9.68;5.38;;;;;;;4.01;56.68;97421.91;4992706;28;20049;-60
2021/04/15 07:29:34;;;;;;;11.52;4.32;;;;;;;4.64;56.01;97429.41;4988017;28;20130;-59
2021/04/15 07:32:41;;;;;;;9.48;5.40;;;;;;;4.29;56.12;97423.75;5004265;28;20064;-59
2021/04/15 07:35:19;;;;;;;9.18;5.65;;;;;;;3.58;58.34;97424.22;4962099;28;20651;-59
2021/04/15 07:38:13;;;;;;;8.27;5.10;;;;;;;3.65;58.01;97432.75;5000133;28;20097;-59
2021/04/15 07:40:53;;;;;;;8.77;5.05;;;;;;;4.43;56.57;97429.91;5000468;28;20048;-59
2021/04/15 07:43:50;;;;;;;7.80;4.75;;;;;;;4.06;57.65;97431.06;4996652;28;20034;-58
2021/04/15 07:46:36;;;;;;;9.73;4.60;;;;;;;6.51;51.77;97431.66;4998347;28;20508;-58
2021/04/15 07:49:01;;;;;;;9.63;5.07;;;;;;;6.73;50.71;97420.91;5003771;28;20045;-62
2021/04/15 07:51:48;;;;;;;10.82;4.97;;;;;;;6.83;50.56;97429.53;5001592;28;20034;-64
2021/04/15 07:54:29;;;;;;;8.82;4.90;;;;;;;4.72;53.14;97434.09;4999338;28;20381;-64
2021/04/15 07:57:29;;;;;;;10.70;5.05;;;;;;;4.87;54.81;97438.31;5004856;28;20842;-63
2021/04/15 08:00:18;;;;;;;9.98;4.97;;;;;;;5.87;52.60;97442.34;4987440;28;20108;-63
2021/04/15 08:03:33;;;;;;;7.45;5.07;;;;;;;5.90;53.36;97437.06;4998097;28;20042;-64
2021/04/15 08:06:32;;;;;;;9.75;5.15;;;;;;;5.38;52.69;97442.38;4984877;28;20038;-63
2021/04/15 08:09:19;;;;;;;11.45;4.97;;;;;;;4.74;53.99;97437.31;4995602;28;20042;-65
2021/04/15 08:11:54;;;;;;;11.57;5.57;;;;;;;5.09;55.44;97443.69;4997901;28;20049;-63
2021/04/15 08:14:49;;;;;;;9.82;5.63;;;;;;;5.14;53.95;97442.78;4996232;28;20076;-65
2021/04/15 08:17:23;;;;;;;8.95;5.15;;;;;;;5.38;53.26;97425.28;4992411;28;20053;-63
2021/04/15 08:20:03;;;;;;;8.93;5.53;;;;;;;6.51;49.97;97439.03;4996978;28;20519;-63
2021/04/15 08:22:47;;;;;;;8.75;4.63;;;;;;;6.32;49.01;97442.09;4999759;28;20489;-65
2021/04/15 08:25:35;;;;;;;9.05;5.35;;;;;;;6.44;50.53;97446.88;4998197;28;20050;-64
2021/04/15 08:28:36;;;;;;;9.00;5.30;;;;;;;5.46;52.70;97441.63;5003632;28;20038;-64
2021/04/15 08:31:12;;;;;;;10.98;6.05;;;;;;;5.81;51.76;97441.69;5002231;28;20042;-61
2021/04/15 08:34:02;;;;;;;8.88;5.07;;;;;;;5.94;51.31;97439.94;4996584;28;20133;-64
2021/04/15 08:36:49;;;;;;;8.35;5.13;;;;;;;5.42;52.45;97442.53;4991779;28;20042;-64
2021/04/15 08:39:32;;;;;;;10.02;5.38;;;;;;;5.75;50.86;97432.09;4996273;28;20522;-63
2021/04/15 08:42:18;;;;;;;9.38;5.40;;;;;;;5.92;49.59;97439.47;5003314;28;20045;-64
2021/04/15 08:45:09;;;;;;;9.27;5.22;;;;;;;6.85;48.82;97437.38;4998101;28;20042;-63
2021/04/15 08:47:51;;;;;;;10.95;5.07;;;;;;;6.93;47.86;97417.47;5003072;28;20050;-63
2021/04/15 08:50:42;;;;;;;9.45;5.10;;;;;;;8.82;43.45;97430.56;4996440;28;20396;-65
2021/04/15 08:53:23;;;;;;;10.40;4.57;;;;;;;8.85;43.93;97432.63;4998264;28;20132;-65
2021/04/15 08:55:59;;;;;;;8.18;4.40;;;;;;;9.71;41.77;97421.00;5003007;28;20703;-64
2021/04/15 08:59:10;;;;;;;9.35;4.80;;;;;;;7.99;43.78;97419.34;4994727;28;20042;-63
2021/04/15 09:02:10;;;;;;;8.32;5.43;;;;;;;6.06;49.33;97434.72;5002236;28;20373;-64
2021/04/15 09:04:51;;;;;;;7.97;5.00;;;;;;;6.04;50.48;97428.00;5000602;28;20052;-63
2021/04/15 09:07:55;;;;;;;9.68;5.88;;;;;;;7.59;46.68;97418.97;4997218;28;20064;-63
2021/04/15 09:10:39;;;;;;;8.18;4.60;;;;;;;9.00;42.58;97422.97;4960161;28;20452;-64
2021/04/15 09:13:29;;;;;;;8.45;5.25;;;;;;;8.73;42.44;97429.84;4984310;28;20034;-62
2021/04/15 09:15:57;;;;;;;;;;;;;;;7.26;44.98;97427.81;4984267;28;20042;-63
2021/04/15 09:19:04;;;;;;;9.57;6.30;;;;;;;6.50;47.67;97434.72;4976829;28;19925;-62
2021/04/15 09:22:07;;;;;;;14.75;7.00;;;;;;;6.01;48.64;97434.06;4987932;28;20120;-62
2021/04/15 09:24:47;;;;;;;8.93;6.40;;;;;;;5.45;49.67;97431.06;4969644;28;20038;-63
2021/04/15 09:27:16;;;;;;;7.30;4.88;;;;;;;6.20;47.69;97431.84;4995544;28;20087;-63
2021/04/15 09:30:10;;;;;;;10.23;4.85;;;;;;;6.75;47.11;97427.63;4996299;28;20096;-64
2021/04/15 09:32:57;;;;;;;7.80;4.53;;;;;;;7.68;43.42;97427.91;4995895;28;20132;-64
2021/04/15 09:36:05;;;;;;;10.05;4.32;;;;;;;8.83;41.51;97421.25;4998625;28;20563;-64
2021/04/15 09:38:52;;;;;;;6.88;4.10;;;;;;;7.94;41.33;97419.56;4921390;29;20096;-64
2021/04/15 09:41:46;;;;;;;9.20;4.75;;;;;;;7.33;44.28;97425.38;4996240;28;20125;-64
2021/04/15 09:44:29;;;;;;;9.43;3.95;;;;;;;9.32;39.66;97426.00;4988121;28;20052;-62
2021/04/15 09:47:18;;;;;;;6.95;4.15;;;;;;;9.08;41.71;97424.03;4993729;28;20119;-64
2021/04/15 09:49:56;;;;;;;6.35;3.50;;;;;;;9.01;40.67;97427.31;5001862;28;20048;-63
2021/04/15 09:52:55;;;;;;;8.20;3.90;;;;;;;9.02;40.57;97423.47;4996907;28;20116;-63
2021/04/15 09:55:30;;;;;;;5.95;3.83;;;;;;;8.84;41.11;97414.66;4998099;28;20140;-63
2021/04/15 09:58:10;;;;;;;5.38;3.20;;;;;;;8.93;40.96;97429.00;4999786;28;20095;-63
2021/04/15 10:00:41;;;;;;;7.03;4.38;;;;;;;7.37;44.19;97417.34;4989383;28;20061;-63
2021/04/15 10:03:28;;;;;;;9.10;4.40;;;;;;;6.63;43.96;97420.13;4999016;28;20396;-62
2021/04/15 10:06:09;;;;;;;6.50;4.80;;;;;;;6.05;46.27;97427.69;5006130;28;20133;-61
2021/04/15 10:08:55;;;;;;;6.97;4.28;;;;;;;5.86;50.93;97435.31;4996175;28;20077;-65
2021/04/15 10:11:38;;;;;;;5.82;3.45;;;;;;;6.71;45.91;97415.78;4995861;28;20120;-63
2021/04/15 10:14:15;;;;;;;5.70;3.55;;;;;;;7.04;44.51;97407.84;5000992;28;20046;-61
2021/04/15 10:17:07;;;;;;;8.50;3.50;;;;;;;7.38;40.77;97399.84;4986765;28;20048;-63
2021/04/15 10:19:47;;;;;;;11.05;4.20;;;;;;;7.56;39.95;97400.53;4993980;28;20054;-64
2021/04/15 10:22:34;;;;;;;4.47;3.80;;;;;;;7.08;38.86;97402.56;4990776;28;20384;-65
2021/04/15 10:25:10;;;;;;;7.03;4.30;;;;;;;6.98;38.90;97394.72;4999064;28;20038;-62
2021/04/15 10:27:36;;;;;;;7.22;3.38;;;;;;;7.43;37.17;97392.28;4999659;28;20400;-63
2021/04/15 10:30:20;;;;;;;9.25;4.72;;;;;;;8.30;38.16;97381.88;5000344;28;20053;-62
2021/04/15 10:33:06;;;;;;;5.03;3.25;;;;;;;8.46;37.05;97374.69;4999874;28;20132;-61
2021/04/15 10:35:37;;;;;;;5.80;3.47;;;;;;;8.76;37.49;97375.34;5000627;28;20098;-64
2021/04/15 10:38:24;;;;;;;8.40;3.80;;;;;;;7.03;39.64;97378.22;5000361;28;20096;-61
2021/04/15 10:41:12;;;;;;;8.10;4.15;;;;;;;5.80;38.97;97380.31;5001089;28;20413;-64
2021/04/15 10:43:50;;;;;;;7.25;3.50;;;;;;;5.92;40.51;97382.38;5000587;28;20037;-63
2021/04/15 10:46:37;;;;;;;6.18;3.72;;;;;;;6.09;39.39;97379.69;4988706;28;20127;-64
2021/04/15 10:49:09;;;;;;;5.45;3.85;;;;;;;5.67;39.69;97382.03;4998220;28;20793;-60
2021/04/15 10:51:53;;;;;;;5.70;3.67;;;;;;;5.66;40.59;97383.16;5000727;28;20042;-63
2021/04/15 10:54:40;;;;;;;6.30;3.65;;;;;;;5.70;41.35;97378.66;4999407;28;20409;-62
2021/04/15 10:57:19;;;;;;;5.18;3.50;;;;;;;6.04;42.83;97385.28;4976248;28;20052;-62
2021/04/15 10:59:48;;;;;;;5.38;3.25;;;;;;;5.64;43.17;97379.97;4997879;28;20046;-62
2021/04/15 11:02:31;;;;;;;4.45;3.20;;;;;;;6.26;40.33;97381.59;4996021;28;20895;-62
2021/04/15 11:05:36;;;;;;;4.13;3.55;;;;;;;6.35;40.60;97383.50;5000277;28;20123;-63
2021/04/15 11:08:08;;;;;;;7.10;3.45;;;;;;;5.98;41.02;97372.97;5000767;28;20042;-61
2021/04/15 11:10:35;;;;;;;6.75;3.55;;;;;;;5.71;39.59;97376.78;5001252;28;20053;-59
2021/04/15 11:13:11;;;;;;;4.07;3.30;;;;;;;5.70;38.14;97365.09;4998178;28;20053;-62
2021/04/15 11:15:49;;;;;;;10.10;2.65;;;;;;;6.11;37.03;97361.13;5002338;28;20095;-62
2021/04/15 11:18:23;;;;;;;4.15;2.88;;;;;;;6.30;36.70;97363.53;5000217;28;20141;-62
2021/04/15 11:20:51;;;;;;;6.68;3.67;;;;;;;6.28;37.27;97359.50;5002671;28;20042;-61
2021/04/15 11:23:16;;;;;;;15.35;6.55;;;;;;;7.37;36.25;97354.66;4998096;28;20041;-59
2021/04/15 11:25:46;;;;;;;7.18;3.83;;;;;;;6.57;35.85;97347.13;4999627;28;20053;-62
2021/04/15 11:28:20;;;;;;;6.45;4.05;;;;;;;7.47;36.81;97352.34;4999018;28;20061;-62
2021/04/15 11:30:47;;;;;;;5.22;3.60;;;;;;;7.07;38.42;97347.25;5004050;28;20046;-59
2021/04/15 11:33:36;;;;;;;5.40;3.50;;;;;;;6.98;37.95;97340.25;4998523;28;20046;-63
2021/04/15 11:36:25;;;;;;;6.78;3.90;;;;;;;6.70;38.26;97335.25;5002592;28;20124;-66
2021/04/15 11:39:05;;;;;;;6.85;4.43;;;;;;;7.34;37.21;97355.31;5004447;28;20514;-62
2021/04/15 11:41:46;;;;;;;5.60;3.40;;;;;;;7.11;35.62;97343.88;5003266;28;20046;-63
2021/04/15 11:44:43;;;;;;;4.97;4.13;;;;;;;6.84;37.19;97346.72;5013921;28;20050;-63
2021/04/15 11:47:20;;;;;;;5.25;3.25;;;;;;;7.19;38.64;97338.41;4997959;28;20512;-62
2021/04/15 11:49:46;;;;;;;5.05;3.38;;;;;;;6.41;37.77;97341.41;5004344;28;20065;-65
2021/04/15 11:52:11;;;;;;;6.43;3.75;;;;;;;6.61;37.11;97348.06;4999873;28;20460;-62
2021/04/15 11:54:40;;;;;;;4.50;3.30;;;;;;;7.23;37.79;97341.25;5010892;28;20061;-62
2021/04/15 11:57:24;;;;;;;4.90;3.22;;;;;;;6.92;38.13;97342.38;5009690;28;20042;-64
2021/04/15 11:59:55;;;;;;;5.82;3.80;;;;;;;6.91;40.60;97340.75;5000438;28;20041;-61
2021/04/15 12:02:33;;;;;;;5.90;3.10;;;;;;;7.13;37.12;97345.16;5001384;28;20045;-60
2021/04/15 12:05:27;;;;;;;5.43;3.35;;;;;;;6.80;35.42;97350.41;5003710;28;20041;-60
2021/04/15 12:08:00;;;;;;;5.03;3.45;;;;;;;6.61;37.11;97346.16;5003237;28;20038;-61
2021/04/15 12:10:32;;;;;;;7.30;3.50;;;;;;;7.62;37.70;97340.06;4990523;28;20966;-62
2021/04/15 12:13:02;;;;;;;3.75;2.63;;;;;;;7.77;34.88;97346.06;5001977;28;20057;-60
2021/04/15 12:15:34;;;;;;;7.95;3.42;;;;;;;7.66;36.46;97345.66;4979220;28;20054;-62
2021/04/15 12:18:06;;;;;;;5.70;3.30;;;;;;;8.89;35.21;97337.91;5003532;28;20053;-60
2021/04/15 12:20:54;;;;;;;5.38;3.35;;;;;;;7.97;32.22;97331.59;5023467;28;20068;-59
2021/04/15 12:23:20;;;;;;;3.60;2.85;;;;;;;7.97;35.02;97337.06;5017795;28;20040;-61
2021/04/15 12:25:54;;;;;;;4.05;3.30;;;;;;;7.39;34.79;97325.16;5022798;28;20045;-61
2021/04/15 12:28:25;;;;;;;5.05;3.30;;;;;;;7.98;34.50;97330.47;5017655;28;20119;-59
2021/04/15 12:31:00;;;;;;;5.30;2.97;;;;;;;7.73;33.78;97324.09;5007268;28;20080;-63